GMTT/TNG METAR and TAF weather

Enter ICAO airport designator
Station Type Date Time Source
GMTT METAR 2018/12/12 06:00 UTC NOAA

GMTT 120600Z 20007KT 6000 SCT010 BKN026 15/12 Q1023 NOSIG


Station Type Date Time Source
GMTT Decoded METAR 2018/12/12 06:00 UTC NOAA

Tanger Aerodrome , Morocco (GMTT) 35-44N 005-54W 21M
Dec 12, 2018 - 01:00 AM EST / 2018.12.12 0600 UTC
Wind: from the SSW (200 degrees) at 8 MPH (7 KT):0
Visibility: 3 mile(s):0
Sky conditions: mostly cloudy
Temperature: 59 F (15 C)
Dew Point: 53 F (12 C)
Relative Humidity: 82%
Pressure (altimeter): 30.21 in. Hg (1023 hPa)
ob: GMTT 120600Z 20007KT 6000 SCT010 BKN026 15/12 Q1023 NOSIG
cycle: 6

Station Type Date Time Source
GMTT TAF 2018/12/12 06:57 UTC NOAA

TAF TAF GMTT 120500Z 1206/1312 22007KT 6000 SCT010 BKN020
TEMPO 1309/1312 2000 RA SCT010 BKN013


Example: see airport list